Saltford, United Kingdom
Current Conditions -  °F | °C
As of 5:50 PM on Wednesday 28 Jan 2015 (Local Time) from EGGD Reporting Station
Few Clouds Few Clouds  
Wind Chill: -3°   Ceiling: Unl
Heat Index:   Visibility: 6mi
Dew Point: -1°   Wind: 18mph
Humidity: 75%   Direction: 270°W
Pressure: 29.65"   Gusts: NA
Location:  51.4°N, 2.46°W
Report Text: EGGD 281750Z 27016KT 9999 FEW023 03/M01 Q1004
Loading
Personal Weather Stations






























Interactive Weather Map New forecast layout! Learn more

10-Day Weather Forecast

Advertisements
Track Severe Weather on mobile